createdAt,value
2022-10-19T00:01:48.099Z,15.80
2022-10-19T00:04:17.703Z,15.70
2022-10-19T00:09:16.352Z,16.00
2022-10-19T00:14:21.366Z,17.50
2022-10-19T00:16:49.983Z,11.70
2022-10-19T00:19:22.481Z,12.80
2022-10-19T00:24:45.983Z,15.80
2022-10-19T00:27:13.723Z,14.20
2022-10-19T00:29:41.681Z,15.90
2022-10-19T00:32:08.836Z,15.30
2022-10-19T00:34:36.760Z,11.80
2022-10-19T00:37:03.783Z,20.60
2022-10-19T00:39:30.620Z,13.50
2022-10-19T00:41:59.897Z,10.80
2022-10-19T00:44:29.455Z,12.30
2022-10-19T00:47:08.156Z,13.60
2022-10-19T00:49:38.876Z,13.40
2022-10-19T00:54:50.009Z,13.50
2022-10-19T00:57:20.811Z,16.20
2022-10-19T00:59:47.800Z,9.80
2022-10-19T01:02:21.158Z,12.50
2022-10-19T01:04:53.002Z,11.10
2022-10-19T01:07:20.682Z,9.70
2022-10-19T01:09:50.733Z,12.70
2022-10-19T01:12:33.110Z,11.10
2022-10-19T01:15:12.722Z,12.40
2022-10-19T01:17:42.086Z,10.50
2022-10-19T01:20:27.661Z,17.60
2022-10-19T01:23:16.770Z,10.20
2022-10-19T01:26:03.145Z,8.60
2022-10-19T01:29:12.130Z,12.60
2022-10-19T01:31:57.861Z,11.60
2022-10-19T01:34:45.783Z,13.40
2022-10-19T01:37:36.873Z,11.40
2022-10-19T01:40:10.010Z,13.30
2022-10-19T01:43:05.093Z,8.30
2022-10-19T01:46:18.017Z,7.70
2022-10-19T01:48:55.103Z,11.80
2022-10-19T01:51:33.471Z,11.10
2022-10-19T01:54:04.453Z,12.80
2022-10-19T01:56:33.900Z,9.00
2022-10-19T01:59:04.785Z,10.90
2022-10-19T02:01:35.436Z,9.30
2022-10-19T02:04:20.854Z,10.70
2022-10-19T02:06:53.190Z,10.60
2022-10-19T02:09:20.335Z,14.20
2022-10-19T02:12:10.618Z,10.40
2022-10-19T02:14:50.979Z,11.90
2022-10-19T02:17:30.166Z,9.10
2022-10-19T02:20:06.950Z,12.80
2022-10-19T02:22:39.999Z,9.10
2022-10-19T02:25:10.144Z,13.50
2022-10-19T02:30:17.950Z,11.10
2022-10-19T02:32:53.222Z,12.60
2022-10-19T02:35:20.571Z,16.00
2022-10-19T02:37:47.926Z,12.00
2022-10-19T02:40:25.625Z,26.50
2022-10-19T02:43:01.256Z,12.50
2022-10-19T02:45:33.057Z,11.60
2022-10-19T02:48:21.255Z,12.90
2022-10-19T02:50:48.002Z,14.20
2022-10-19T02:53:17.801Z,13.20
2022-10-19T02:55:47.639Z,10.70
2022-10-19T02:58:20.745Z,10.70
2022-10-19T03:00:49.624Z,13.90
2022-10-19T03:03:16.510Z,12.40
2022-10-19T03:05:57.689Z,10.70
2022-10-19T03:08:24.740Z,11.80
2022-10-19T03:10:59.336Z,17.40
2022-10-19T03:13:33.167Z,9.80
2022-10-19T03:16:10.249Z,11.70
2022-10-19T03:18:37.786Z,15.40
2022-10-19T03:21:19.572Z,8.90
2022-10-19T03:23:46.651Z,9.70
2022-10-19T03:26:17.876Z,6.70
2022-10-19T03:28:45.461Z,13.00
2022-10-19T03:31:12.611Z,11.40
2022-10-19T03:33:42.219Z,12.60
2022-10-19T03:36:22.803Z,13.20
2022-10-19T03:38:55.057Z,12.80
2022-10-19T03:41:24.739Z,9.60
2022-10-19T03:43:52.180Z,9.90
2022-10-19T03:46:19.884Z,8.40
2022-10-19T03:48:55.232Z,9.20
2022-10-19T03:51:25.688Z,8.40
2022-10-19T03:56:23.601Z,8.80
2022-10-19T03:58:55.289Z,8.00
2022-10-19T04:01:31.114Z,6.90
2022-10-19T04:04:01.393Z,9.70
2022-10-19T04:06:36.418Z,9.20
2022-10-19T04:09:05.500Z,8.00
2022-10-19T04:11:34.239Z,7.90
2022-10-19T04:14:04.558Z,9.80
2022-10-19T04:16:33.273Z,7.90
2022-10-19T04:19:03.534Z,11.10
2022-10-19T04:21:50.464Z,11.80
2022-10-19T04:24:48.816Z,9.70
2022-10-19T04:27:15.958Z,13.70
2022-10-19T04:29:43.646Z,14.20
2022-10-19T04:32:10.842Z,12.20
2022-10-19T04:34:39.990Z,9.10
2022-10-19T04:37:07.412Z,11.00
2022-10-19T04:39:40.336Z,10.60
2022-10-19T04:42:07.469Z,8.30
2022-10-19T04:44:42.558Z,12.80
2022-10-19T04:47:09.793Z,11.90
2022-10-19T04:49:37.080Z,10.60
2022-10-19T04:52:04.398Z,9.90
2022-10-19T04:54:42.509Z,8.00
2022-10-19T04:57:10.488Z,11.10
2022-10-19T04:59:37.917Z,7.70
2022-10-19T05:02:05.163Z,8.10
2022-10-19T05:04:36.489Z,8.30
2022-10-19T05:07:03.710Z,8.90
2022-10-19T05:09:30.661Z,10.80
2022-10-19T05:11:57.910Z,11.80
2022-10-19T05:16:58.914Z,9.90
2022-10-19T05:19:26.169Z,14.20
2022-10-19T05:21:59.156Z,10.70
2022-10-19T05:24:43.947Z,11.20
2022-10-19T05:27:11.207Z,10.20
2022-10-19T05:29:38.160Z,11.80
2022-10-19T05:32:05.816Z,13.10
2022-10-19T05:34:33.074Z,12.50
2022-10-19T05:37:05.086Z,11.10
2022-10-19T05:39:39.186Z,9.30
2022-10-19T05:42:06.164Z,10.70
2022-10-19T05:47:03.873Z,9.30
2022-10-19T05:49:31.235Z,8.60
2022-10-19T05:52:04.689Z,10.50
2022-10-19T05:54:31.783Z,8.60
2022-10-19T05:56:59.019Z,8.70
2022-10-19T05:59:26.643Z,9.00
2022-10-19T06:01:53.490Z,9.80
2022-10-19T06:04:20.517Z,12.50
2022-10-19T06:06:47.505Z,9.80
2022-10-19T06:09:14.382Z,9.50
2022-10-19T06:11:42.828Z,10.70
2022-10-19T06:14:15.438Z,9.40
2022-10-19T06:16:45.235Z,13.80
2022-10-19T06:19:11.938Z,9.80
2022-10-19T06:21:41.816Z,10.70
2022-10-19T06:24:12.525Z,8.50
2022-10-19T06:26:47.399Z,9.50
2022-10-19T06:29:14.252Z,11.00
2022-10-19T06:31:41.154Z,14.00
2022-10-19T06:34:07.890Z,10.80
2022-10-19T06:36:37.408Z,18.20
2022-10-19T06:39:04.152Z,10.80
2022-10-19T06:41:32.164Z,12.20
2022-10-19T06:44:06.518Z,15.70
2022-10-19T06:46:33.438Z,17.10
2022-10-19T06:49:01.693Z,22.20
2022-10-19T06:51:30.307Z,12.00
2022-10-19T06:53:59.884Z,13.80
2022-10-19T06:56:36.132Z,12.90
2022-10-19T06:59:03.109Z,19.60
2022-10-19T07:01:37.312Z,14.90
2022-10-19T07:04:04.140Z,13.30
2022-10-19T07:06:30.955Z,17.00
2022-10-19T07:08:57.868Z,14.80
2022-10-19T07:11:30.916Z,19.30
2022-10-19T07:14:18.515Z,30.60
2022-10-19T07:16:45.310Z,30.40
2022-10-19T07:19:13.113Z,23.80
2022-10-19T07:21:41.217Z,24.10
2022-10-19T07:24:17.393Z,23.80
2022-10-19T07:26:44.210Z,18.50
2022-10-19T07:29:11.124Z,31.70
2022-10-19T07:31:37.817Z,25.20
2022-10-19T07:34:05.243Z,37.80
2022-10-19T07:36:36.496Z,27.50
2022-10-19T07:39:05.834Z,23.70
2022-10-19T07:41:34.262Z,31.30
2022-10-19T07:44:12.152Z,30.00
2022-10-19T07:46:42.705Z,22.90
2022-10-19T07:49:13.516Z,20.20
2022-10-19T07:51:40.401Z,25.00
2022-10-19T07:54:07.766Z,17.10
2022-10-19T07:56:34.854Z,19.80
2022-10-19T07:59:04.347Z,18.90
2022-10-19T08:01:33.974Z,15.50
2022-10-19T08:06:48.337Z,23.60
2022-10-19T08:09:47.342Z,21.50
2022-10-19T08:12:05.817Z,16.60
2022-10-19T08:14:33.107Z,19.90
2022-10-19T08:17:00.319Z,12.90
2022-10-19T08:19:27.492Z,13.70
2022-10-19T08:21:54.317Z,19.40
2022-10-19T08:24:21.212Z,22.40
2022-10-19T08:26:50.684Z,17.20
2022-10-19T08:29:22.011Z,34.40
2022-10-19T08:31:50.243Z,24.80
2022-10-19T08:34:17.312Z,25.90
2022-10-19T08:36:44.305Z,23.70
2022-10-19T08:39:12.903Z,18.30
2022-10-19T08:41:40.066Z,15.10
2022-10-19T08:44:44.734Z,10.50
2022-10-19T08:47:22.321Z,21.20
2022-10-19T08:49:50.989Z,15.20
2022-10-19T08:52:33.420Z,14.20
2022-10-19T08:55:08.433Z,11.50
2022-10-19T08:57:57.499Z,19.00
2022-10-19T09:00:46.608Z,18.20
2022-10-19T09:03:37.788Z,20.80
2022-10-19T09:06:56.756Z,11.10
2022-10-19T09:09:24.919Z,13.80
2022-10-19T09:11:57.782Z,15.70
2022-10-19T09:14:44.000Z,24.40
2022-10-19T09:17:14.147Z,15.30
2022-10-19T09:19:41.052Z,17.30
2022-10-19T09:22:33.878Z,10.70
2022-10-19T09:25:12.577Z,13.80
2022-10-19T09:27:42.962Z,15.90
2022-10-19T09:30:21.719Z,13.10
2022-10-19T09:32:51.652Z,13.30
2022-10-19T09:35:42.826Z,10.10
2022-10-19T09:38:14.359Z,16.20
2022-10-19T09:40:41.179Z,12.90
2022-10-19T09:43:20.285Z,11.70
2022-10-19T09:45:50.875Z,14.20
2022-10-19T09:48:32.943Z,20.00
2022-10-19T09:51:10.075Z,11.00
2022-10-19T09:53:37.736Z,12.50
2022-10-19T09:56:07.046Z,9.60
2022-10-19T09:58:35.297Z,14.20
2022-10-19T10:01:02.814Z,15.80
2022-10-19T10:03:35.967Z,14.10
2022-10-19T10:06:06.808Z,12.00
2022-10-19T10:08:37.745Z,13.10
2022-10-19T10:11:11.229Z,13.00
2022-10-19T10:13:41.371Z,16.10
2022-10-19T10:16:15.390Z,17.70
2022-10-19T10:18:51.571Z,15.00
2022-10-19T10:21:34.225Z,13.30
2022-10-19T10:24:06.307Z,17.80
2022-10-19T10:26:42.469Z,17.60
2022-10-19T10:29:30.393Z,14.40
2022-10-19T10:32:15.716Z,21.50
2022-10-19T10:34:58.534Z,14.00
2022-10-19T10:37:42.794Z,16.50
2022-10-19T10:40:28.072Z,13.00
2022-10-19T10:43:01.133Z,10.00
2022-10-19T10:45:45.798Z,12.10
2022-10-19T10:48:30.462Z,14.20
2022-10-19T10:51:00.465Z,14.30
2022-10-19T10:53:40.032Z,11.90
2022-10-19T10:56:28.917Z,14.30
2022-10-19T10:59:09.937Z,12.90
2022-10-19T11:01:44.520Z,18.60
2022-10-19T11:04:19.075Z,16.00
2022-10-19T11:06:54.625Z,12.70
2022-10-19T11:09:24.330Z,15.20
2022-10-19T11:11:55.430Z,15.80
2022-10-19T11:14:45.506Z,12.90
2022-10-19T11:17:20.488Z,10.30
2022-10-19T11:19:50.675Z,15.30
2022-10-19T11:22:27.973Z,10.00
2022-10-19T11:25:24.560Z,13.50
2022-10-19T11:27:56.312Z,10.20
2022-10-19T11:30:24.698Z,7.60
2022-10-19T11:33:03.411Z,14.80
2022-10-19T11:35:30.286Z,7.10
2022-10-19T11:38:23.391Z,12.30
2022-10-19T11:41:26.400Z,10.60
2022-10-19T11:44:04.311Z,9.10
2022-10-19T11:46:37.800Z,14.60
2022-10-19T11:49:26.408Z,8.90
2022-10-19T11:52:12.856Z,9.60
2022-10-19T11:54:58.598Z,12.10
2022-10-19T11:57:36.590Z,17.00
2022-10-19T12:00:27.243Z,11.00
2022-10-19T12:03:27.938Z,12.00
2022-10-19T12:06:13.067Z,7.40
2022-10-19T12:09:24.670Z,8.50
2022-10-19T12:12:39.702Z,11.40
2022-10-19T12:15:35.397Z,11.20
2022-10-19T12:18:41.249Z,9.90
2022-10-19T12:21:17.586Z,10.50
2022-10-19T12:23:46.566Z,8.30
2022-10-19T12:28:57.259Z,8.10
2022-10-19T12:31:26.987Z,12.30
2022-10-19T12:33:59.866Z,8.80
2022-10-19T12:36:39.416Z,10.70
2022-10-19T12:39:23.429Z,13.30
2022-10-19T12:42:10.613Z,15.00
2022-10-19T12:45:08.724Z,13.60
2022-10-19T12:47:36.377Z,10.70
2022-10-19T12:50:04.059Z,13.30
2022-10-19T12:52:34.417Z,13.50
2022-10-19T12:55:17.289Z,17.50
2022-10-19T12:57:47.916Z,21.20
2022-10-19T13:00:29.657Z,19.10
2022-10-19T13:03:03.321Z,16.30
2022-10-19T13:05:31.751Z,26.80
2022-10-19T13:08:02.970Z,14.30
2022-10-19T13:10:32.816Z,16.80
2022-10-19T13:13:03.017Z,21.40
2022-10-19T13:15:36.342Z,18.80
2022-10-19T13:18:16.450Z,16.30
2022-10-19T13:20:53.141Z,14.10
2022-10-19T13:23:26.034Z,13.00
2022-10-19T13:26:38.270Z,13.10
2022-10-19T13:29:24.937Z,19.60
2022-10-19T13:32:34.696Z,20.20
2022-10-19T13:35:20.983Z,15.60
2022-10-19T13:38:09.867Z,17.10
2022-10-19T13:40:55.452Z,16.90
2022-10-19T13:43:26.363Z,11.10
2022-10-19T13:46:01.975Z,10.00
2022-10-19T13:48:37.520Z,9.00
2022-10-19T13:51:57.063Z,9.10
2022-10-19T13:54:25.225Z,11.40
2022-10-19T13:56:51.940Z,22.80
2022-10-19T13:59:40.873Z,16.50
2022-10-19T14:02:13.641Z,17.20
2022-10-19T14:05:06.023Z,7.90
2022-10-19T14:07:59.114Z,9.20
2022-10-19T14:10:32.938Z,14.70
2022-10-19T14:13:11.122Z,10.10
2022-10-19T14:15:38.059Z,13.70
2022-10-19T14:18:23.013Z,19.20
2022-10-19T14:21:04.866Z,12.20
2022-10-19T14:23:39.286Z,15.80
2022-10-19T14:26:20.277Z,17.40
2022-10-19T14:28:53.747Z,12.90
2022-10-19T14:31:25.118Z,12.70
2022-10-19T14:33:56.402Z,13.20
2022-10-19T14:36:27.703Z,17.80
2022-10-19T14:38:57.095Z,20.60
2022-10-19T14:41:26.997Z,28.50
2022-10-19T14:43:58.252Z,26.10
2022-10-19T14:46:29.322Z,16.40
2022-10-19T14:49:14.394Z,16.00
2022-10-19T14:51:47.751Z,16.70
2022-10-19T14:54:29.239Z,18.90
2022-10-19T14:57:03.855Z,16.60
2022-10-19T14:59:34.292Z,15.30
2022-10-19T15:02:08.963Z,17.20
2022-10-19T15:04:37.798Z,20.70
2022-10-19T15:07:18.646Z,23.20
2022-10-19T15:09:53.833Z,18.20
2022-10-19T15:12:27.462Z,18.10
2022-10-19T15:14:55.584Z,23.50
2022-10-19T15:17:30.877Z,23.00
2022-10-19T15:20:04.744Z,25.80
2022-10-19T15:22:32.011Z,27.30
2022-10-19T15:25:01.738Z,23.00
2022-10-19T15:27:34.526Z,21.30
2022-10-19T15:30:06.547Z,22.00
2022-10-19T15:32:37.908Z,19.10
2022-10-19T15:35:18.003Z,20.70
2022-10-19T15:37:48.984Z,23.40
2022-10-19T15:40:33.071Z,21.50
2022-10-19T15:43:19.657Z,19.10
2022-10-19T15:45:46.400Z,26.00
2022-10-19T15:48:26.233Z,17.90
2022-10-19T15:50:54.295Z,22.70
2022-10-19T15:53:21.984Z,16.30
2022-10-19T15:55:49.940Z,21.40
2022-10-19T15:58:17.606Z,28.00
2022-10-19T16:00:47.396Z,30.90
2022-10-19T16:03:14.203Z,24.70
2022-10-19T16:05:42.810Z,25.30
2022-10-19T16:08:12.465Z,21.80
2022-10-19T16:10:39.511Z,30.20
2022-10-19T16:13:06.410Z,18.40
2022-10-19T16:15:33.559Z,26.30
2022-10-19T16:18:00.996Z,18.60
2022-10-19T16:20:29.875Z,25.00
2022-10-19T16:22:57.254Z,23.80
2022-10-19T16:25:24.234Z,19.40
2022-10-19T16:27:51.149Z,20.00
2022-10-19T16:30:18.446Z,20.10
2022-10-19T16:32:47.989Z,22.60
2022-10-19T16:35:14.987Z,19.20
2022-10-19T16:37:41.668Z,19.90
2022-10-19T16:40:08.889Z,18.50
2022-10-19T16:42:36.019Z,18.10
2022-10-19T16:45:03.098Z,21.70
2022-10-19T16:47:29.830Z,24.00
2022-10-19T16:50:02.301Z,21.50
2022-10-19T16:52:31.207Z,24.60
2022-10-19T16:54:59.199Z,21.40
2022-10-19T16:57:26.427Z,21.30
2022-10-19T17:02:26.278Z,16.10
2022-10-19T17:04:53.080Z,18.30
2022-10-19T17:07:20.465Z,17.30
2022-10-19T17:09:49.823Z,15.00
2022-10-19T17:14:44.962Z,18.80
2022-10-19T17:17:12.435Z,22.60
2022-10-19T17:19:41.280Z,26.10
2022-10-19T17:22:07.987Z,23.10
2022-10-19T17:24:36.780Z,22.60
2022-10-19T17:27:03.617Z,23.50
2022-10-19T17:29:30.608Z,22.00
2022-10-19T17:31:58.592Z,18.30
2022-10-19T17:34:28.358Z,22.00
2022-10-19T17:36:58.955Z,24.80
2022-10-19T17:39:29.209Z,27.90
2022-10-19T17:42:00.751Z,28.80
2022-10-19T17:44:29.462Z,25.50
2022-10-19T17:46:58.848Z,22.50
2022-10-19T17:49:25.746Z,24.90
2022-10-19T17:51:53.789Z,23.10
2022-10-19T17:54:20.584Z,26.60
2022-10-19T17:56:47.338Z,30.20
2022-10-19T17:59:14.412Z,23.80
2022-10-19T18:01:41.204Z,22.00
2022-10-19T18:04:07.873Z,25.40
2022-10-19T18:06:36.684Z,24.30
2022-10-19T18:09:06.126Z,30.40
2022-10-19T18:11:40.002Z,27.00
2022-10-19T18:14:08.447Z,25.00
2022-10-19T18:16:41.689Z,25.00
2022-10-19T18:19:08.559Z,30.10
2022-10-19T18:21:39.915Z,27.00
2022-10-19T18:24:31.160Z,25.80
2022-10-19T18:29:41.980Z,49.50
2022-10-19T18:32:11.409Z,36.60
2022-10-19T18:34:48.865Z,35.20
2022-10-19T18:37:16.176Z,38.00
2022-10-19T18:39:55.020Z,42.80
2022-10-19T18:42:22.156Z,49.20
2022-10-19T18:45:05.172Z,45.40
2022-10-19T18:47:42.611Z,32.10
2022-10-19T18:53:01.292Z,31.30
2022-10-19T18:55:28.071Z,26.70
2022-10-19T18:58:05.070Z,23.00
2022-10-19T19:00:45.550Z,29.10
2022-10-19T19:03:28.137Z,26.70
2022-10-19T19:06:01.557Z,27.30
2022-10-19T19:08:28.704Z,25.60
2022-10-19T19:10:58.637Z,21.20
2022-10-19T19:13:35.680Z,21.40
2022-10-19T19:19:04.858Z,23.20
2022-10-19T19:21:34.015Z,19.80
2022-10-19T19:24:03.492Z,21.00
2022-10-19T19:26:36.975Z,21.20
2022-10-19T19:29:08.070Z,22.20
2022-10-19T19:31:36.159Z,17.00
2022-10-19T19:34:08.888Z,17.10
2022-10-19T19:36:51.222Z,19.50
2022-10-19T19:39:23.521Z,22.10
2022-10-19T19:42:09.285Z,24.50
2022-10-19T19:44:38.564Z,16.80
2022-10-19T19:47:10.784Z,20.00
2022-10-19T19:49:37.711Z,21.30
2022-10-19T19:52:13.635Z,29.50
2022-10-19T19:54:48.359Z,26.30
2022-10-19T19:57:27.694Z,27.10
2022-10-19T20:00:00.189Z,25.90
2022-10-19T20:02:27.000Z,30.20
2022-10-19T20:04:59.497Z,39.70
2022-10-19T20:07:30.458Z,35.60
2022-10-19T20:10:00.293Z,29.80
2022-10-19T20:12:32.742Z,31.00
2022-10-19T20:15:03.741Z,22.60
2022-10-19T20:17:30.899Z,26.40
2022-10-19T20:20:10.854Z,28.90
2022-10-19T20:22:38.102Z,25.60
2022-10-19T20:25:09.403Z,20.30
2022-10-19T20:27:38.347Z,14.90
2022-10-19T20:30:19.795Z,14.10
2022-10-19T20:33:04.653Z,10.90
2022-10-19T20:35:36.898Z,10.90
2022-10-19T20:38:23.581Z,10.10
2022-10-19T20:41:08.011Z,15.70
2022-10-19T20:43:37.072Z,13.30
2022-10-19T20:46:15.027Z,15.90
2022-10-19T20:48:47.146Z,13.20
2022-10-19T20:51:31.642Z,16.30
2022-10-19T20:54:11.641Z,24.70
2022-10-19T20:56:46.265Z,16.70
2022-10-19T20:59:16.672Z,18.30
2022-10-19T21:01:51.126Z,14.20
2022-10-19T21:04:28.010Z,18.10
2022-10-19T21:07:05.011Z,21.90
2022-10-19T21:09:39.012Z,15.30
2022-10-19T21:12:09.712Z,18.90
2022-10-19T21:14:36.755Z,18.00
2022-10-19T21:17:06.448Z,20.80
2022-10-19T21:19:44.003Z,21.60
2022-10-19T21:22:15.913Z,21.40
2022-10-19T21:24:42.821Z,23.00
2022-10-19T21:27:16.351Z,21.90
2022-10-19T21:29:43.166Z,23.00
2022-10-19T21:32:10.054Z,14.80
2022-10-19T21:34:40.488Z,21.30
2022-10-19T21:37:13.959Z,17.10
2022-10-19T21:39:46.349Z,19.40
2022-10-19T21:42:13.295Z,19.40
2022-10-19T21:44:44.439Z,29.10
2022-10-19T21:47:20.731Z,13.00
2022-10-19T21:49:49.798Z,10.60
2022-10-19T21:52:16.609Z,10.00
2022-10-19T21:54:45.508Z,8.30
2022-10-19T21:57:12.582Z,8.10
2022-10-19T21:59:45.542Z,9.30
2022-10-19T22:02:13.083Z,7.60
2022-10-19T22:04:41.935Z,7.10
2022-10-19T22:07:08.795Z,10.60
2022-10-19T22:09:35.941Z,5.60
2022-10-19T22:12:02.702Z,7.60
2022-10-19T22:14:29.582Z,6.40
2022-10-19T22:16:58.848Z,7.20
2022-10-19T22:19:28.254Z,5.00
2022-10-19T22:21:54.895Z,8.60
2022-10-19T22:24:22.793Z,7.90
2022-10-19T22:27:04.058Z,6.80
2022-10-19T22:29:35.705Z,6.60
2022-10-19T22:32:05.147Z,7.30
2022-10-19T22:34:43.815Z,5.80
2022-10-19T22:37:17.671Z,10.80
